Time;durP1;ratioP1;P1;durP2;ratioP2;P2;SDS_P1;SDS_P2;PMS_P1;PMS_P2;Temp;Humidity;BMP_temperature;BMP_pressure;BME280_temperature;BME280_humidity;BME280_pressure;Samples;Min_cycle;Max_cycle;Signal;HPM_P1;HPM_P2
2023/06/02 00:01:31;;;;;;;24.13;23.13;;;21.10;52.90;;;;;;5094559;28;20542;-56
2023/06/02 00:03:59;;;;;;;24.37;23.17;;;21.10;52.90;;;;;;5078217;28;20443;-59
2023/06/02 00:06:30;;;;;;;23.63;22.43;;;21.10;52.80;;;;;;5074259;28;20458;-58
2023/06/02 00:08:58;;;;;;;24.63;23.30;;;21.00;52.80;;;;;;5073897;28;20467;-55
2023/06/02 00:11:27;;;;;;;23.80;22.70;;;21.10;52.70;;;;;;5074083;28;20454;-59
2023/06/02 00:13:54;;;;;;;24.53;23.23;;;21.00;52.30;;;;;;5073952;28;20439;-58
2023/06/02 00:16:22;;;;;;;24.93;23.63;;;21.00;52.30;;;;;;5073931;28;20454;-58
2023/06/02 00:18:52;;;;;;;24.30;23.10;;;21.00;52.20;;;;;;5073693;28;20475;-58
2023/06/02 00:21:20;;;;;;;24.40;23.30;;;21.00;52.20;;;;;;5073826;28;20538;-54
2023/06/02 00:23:47;;;;;;;25.27;24.17;;;21.00;52.20;;;;;;5073763;28;20520;-55
2023/06/02 00:26:14;;;;;;;27.17;25.87;;;21.00;52.00;;;;;;5073615;28;20448;-58
2023/06/02 00:28:43;;;;;;;25.53;24.10;;;21.00;51.90;;;;;;5073611;28;20467;-56
2023/06/02 00:31:10;;;;;;;26.07;24.77;;;20.90;51.70;;;;;;5073721;28;20807;-58
2023/06/02 00:33:37;;;;;;;25.63;24.13;;;20.90;51.60;;;;;;5073559;28;20559;-58
2023/06/02 00:36:04;;;;;;;25.00;23.80;;;20.90;51.60;;;;;;5073742;28;20459;-56
2023/06/02 00:38:31;;;;;;;26.00;24.80;;;20.90;51.60;;;;;;5073238;28;20474;-56
2023/06/02 00:40:58;;;;;;;26.07;24.57;;;20.90;51.60;;;;;;5073358;28;20527;-56
2023/06/02 00:43:25;;;;;;;26.87;25.57;;;20.90;51.60;;;;;;5073359;28;20455;-56
2023/06/02 00:45:53;;;;;;;26.07;24.67;;;20.90;51.50;;;;;;5073485;28;20451;-57
2023/06/02 00:48:20;;;;;;;26.10;24.60;;;20.90;51.50;;;;;;5072568;28;20857;-57
2023/06/02 00:50:47;;;;;;;25.60;24.40;;;20.90;51.40;;;;;;5073364;28;20439;-58
2023/06/02 00:53:15;;;;;;;26.43;25.20;;;20.90;51.30;;;;;;5073340;28;20466;-56
2023/06/02 00:55:43;;;;;;;25.77;24.37;;;20.90;51.30;;;;;;5073189;28;20443;-57
2023/06/02 00:58:13;;;;;;;26.67;25.30;;;20.90;51.40;;;;;;5073187;28;20793;-59
2023/06/02 01:00:40;;;;;;;26.70;25.27;;;20.80;51.30;;;;;;5072982;28;20900;-57
2023/06/02 01:03:09;;;;;;;27.17;25.80;;;20.90;51.40;;;;;;5073017;28;20448;-59
2023/06/02 01:05:37;;;;;;;27.10;25.80;;;20.90;51.40;;;;;;5073049;28;20482;-56
2023/06/02 01:08:07;;;;;;;28.00;26.40;;;20.80;51.20;;;;;;5072856;28;20485;-57
2023/06/02 01:10:36;;;;;;;26.83;25.43;;;20.80;51.10;;;;;;5072942;28;20938;-55
2023/06/02 01:13:03;;;;;;;27.40;26.00;;;20.80;51.10;;;;;;5065549;28;20538;-55
2023/06/02 01:15:31;;;;;;;27.37;26.03;;;20.90;51.20;;;;;;5061936;28;20472;-56
2023/06/02 01:17:59;;;;;;;27.60;26.20;;;20.90;51.10;;;;;;5067684;28;20448;-56
2023/06/02 01:20:28;;;;;;;28.03;26.53;;;20.80;50.90;;;;;;5057818;28;20568;-58
2023/06/02 01:23:10;;;;;;;28.00;26.47;;;20.80;50.90;;;;;;5072574;28;20443;-57
2023/06/02 01:25:39;;;;;;;28.30;26.50;;;20.80;50.80;;;;;;5063581;28;20470;-57
2023/06/02 01:28:06;;;;;;;27.50;26.13;;;20.80;50.80;;;;;;5060746;28;20526;-58
2023/06/02 01:30:34;;;;;;;27.87;26.40;;;20.80;50.90;;;;;;5067728;28;20806;-58
2023/06/02 01:33:08;;;;;;;28.90;27.30;;;20.80;50.90;;;;;;5077476;28;20874;-55
2023/06/02 01:35:42;;;;;;;28.33;26.83;;;20.80;50.80;;;;;;5083027;28;20446;-57
2023/06/02 01:38:10;;;;;;;28.67;27.27;;;20.70;50.60;;;;;;5063077;28;20539;-55
2023/06/02 01:40:39;;;;;;;27.10;25.80;;;20.70;50.50;;;;;;5053459;28;20572;-59
2023/06/02 01:43:07;;;;;;;28.57;26.87;;;20.70;50.50;;;;;;5052283;28;20527;-57
2023/06/02 01:45:34;;;;;;;27.77;26.37;;;20.70;50.50;;;;;;5052440;28;20486;-55
2023/06/02 01:48:02;;;;;;;29.50;27.93;;;20.70;50.50;;;;;;5059247;28;20538;-55
2023/06/02 01:50:29;;;;;;;29.73;28.07;;;20.70;50.50;;;;;;5072209;28;20463;-57
2023/06/02 01:52:56;;;;;;;28.87;27.10;;;20.60;50.10;;;;;;5072026;28;20451;-55
2023/06/02 01:55:23;;;;;;;29.47;27.87;;;20.70;50.20;;;;;;5066588;28;20517;-57
2023/06/02 01:57:52;;;;;;;29.77;28.27;;;20.70;50.40;;;;;;5057676;28;20505;-58
2023/06/02 02:00:19;;;;;;;31.17;29.40;;;20.60;50.50;;;;;;5070947;28;20890;-57
2023/06/02 02:02:47;;;;;;;30.03;28.43;;;20.60;50.40;;;;;;5071924;28;20467;-59
2023/06/02 02:05:14;;;;;;;30.00;28.40;;;20.60;50.30;;;;;;5072010;28;20831;-55
2023/06/02 02:07:42;;;;;;;28.60;27.00;;;20.60;50.50;;;;;;5067508;28;20535;-54
2023/06/02 02:10:11;;;;;;;30.53;28.83;;;20.50;50.20;;;;;;5055489;28;20487;-57
2023/06/02 02:12:38;;;;;;;30.90;28.97;;;20.50;50.20;;;;;;5071724;28;20471;-55
2023/06/02 02:15:09;;;;;;;30.57;28.73;;;20.40;50.10;;;;;;5071645;28;20439;-58
2023/06/02 02:17:36;;;;;;;30.40;28.80;;;20.50;50.10;;;;;;5068298;28;20799;-55
2023/06/02 02:20:05;;;;;;;31.03;29.30;;;20.50;50.00;;;;;;5052475;28;20515;-57
2023/06/02 02:22:32;;;;;;;31.30;29.60;;;20.40;49.90;;;;;;5070136;28;20968;-55
2023/06/02 02:24:59;;;;;;;30.63;29.03;;;20.50;50.20;;;;;;5071542;28;20888;-58
2023/06/02 02:27:26;;;;;;;30.30;28.70;;;20.50;50.60;;;;;;5069777;28;20490;-56
2023/06/02 02:29:53;;;;;;;29.57;28.10;;;20.50;50.70;;;;;;5051262;28;20456;-56
2023/06/02 02:32:22;;;;;;;31.93;29.83;;;20.50;50.50;;;;;;5051473;28;20536;-56
2023/06/02 02:34:48;;;;;;;31.23;29.53;;;20.50;50.50;;;;;;5051499;28;20535;-57
2023/06/02 02:37:16;;;;;;;29.70;28.10;;;20.50;50.30;;;;;;5057896;28;20485;-55
2023/06/02 02:39:43;;;;;;;30.10;28.50;;;20.50;50.20;;;;;;5058030;28;20475;-52
2023/06/02 02:42:10;;;;;;;30.00;28.30;;;20.40;50.10;;;;;;5071444;28;20494;-54
2023/06/02 02:44:37;;;;;;;30.03;28.53;;;20.40;50.00;;;;;;5071379;28;20951;-56
2023/06/02 02:47:04;;;;;;;29.20;27.70;;;20.40;50.00;;;;;;5071365;28;20969;-55
2023/06/02 02:49:32;;;;;;;28.90;27.30;;;20.40;49.90;;;;;;5057447;28;20889;-53
2023/06/02 02:51:59;;;;;;;29.57;27.87;;;20.40;49.80;;;;;;5071287;28;20964;-56
2023/06/02 02:54:26;;;;;;;30.07;28.47;;;20.30;49.60;;;;;;5071359;28;20869;-55
2023/06/02 02:56:53;;;;;;;30.03;28.30;;;20.30;49.70;;;;;;5071399;28;20722;-53
2023/06/02 02:59:21;;;;;;;29.77;28.27;;;20.30;50.10;;;;;;5054238;28;20471;-57
2023/06/02 03:01:48;;;;;;;31.20;29.40;;;20.30;50.10;;;;;;5051178;28;21022;-55
2023/06/02 03:04:18;;;;;;;30.07;28.37;;;20.30;50.10;;;;;;5064691;28;20447;-53
2023/06/02 03:06:48;;;;;;;29.67;28.07;;;20.30;50.00;;;;;;5057450;28;20461;-56
2023/06/02 03:09:15;;;;;;;31.70;29.60;;;20.20;49.80;;;;;;5066261;28;20993;-54
2023/06/02 03:11:43;;;;;;;30.00;28.00;;;20.20;49.80;;;;;;5071796;28;20453;-53
2023/06/02 03:14:10;;;;;;;32.20;30.33;;;20.30;50.00;;;;;;5068848;28;20478;-53
2023/06/02 03:16:40;;;;;;;32.03;30.03;;;20.30;49.90;;;;;;5055440;28;20889;-55
2023/06/02 03:19:07;;;;;;;30.77;29.07;;;20.20;49.70;;;;;;5064835;28;20498;-56
2023/06/02 03:21:41;;;;;;;30.27;28.67;;;20.20;49.70;;;;;;5074973;28;20566;-55
2023/06/02 03:24:11;;;;;;;29.80;28.17;;;20.20;49.70;;;;;;5061954;28;20448;-58
2023/06/02 03:26:40;;;;;;;31.10;29.27;;;20.20;49.60;;;;;;5066433;28;20512;-57
2023/06/02 03:29:07;;;;;;;29.97;28.10;;;20.20;49.60;;;;;;5064130;28;20472;-54
2023/06/02 03:31:34;;;;;;;32.10;30.10;;;20.20;49.50;;;;;;5054864;28;20444;-55
2023/06/02 03:34:01;;;;;;;31.40;29.57;;;20.20;49.40;;;;;;5066205;28;20439;-58
2023/06/02 03:36:28;;;;;;;31.30;29.23;;;20.20;49.40;;;;;;5063379;28;20488;-56
2023/06/02 03:38:55;;;;;;;31.57;29.80;;;20.10;49.10;;;;;;5055455;28;20515;-57
2023/06/02 03:41:23;;;;;;;30.57;28.90;;;20.20;49.10;;;;;;5054525;28;20570;-53
2023/06/02 03:43:50;;;;;;;31.83;29.83;;;20.20;49.20;;;;;;5063680;28;20903;-54
2023/06/02 03:46:17;;;;;;;32.47;30.67;;;20.10;49.10;;;;;;5074503;28;20483;-55
2023/06/02 03:48:44;;;;;;;30.57;28.73;;;20.20;49.20;;;;;;5064065;28;20546;-55
2023/06/02 03:51:11;;;;;;;32.43;30.43;;;20.20;49.30;;;;;;5054535;28;20468;-54
2023/06/02 03:53:37;;;;;;;32.00;30.10;;;20.20;49.40;;;;;;5061849;28;20857;-54
2023/06/02 03:56:05;;;;;;;30.83;29.20;;;20.20;49.20;;;;;;5074357;28;20884;-56
2023/06/02 03:58:33;;;;;;;29.87;28.23;;;20.10;49.60;;;;;;5065827;28;20558;-57
2023/06/02 04:01:01;;;;;;;32.20;30.50;;;20.10;49.00;;;;;;5054126;28;20480;-54
2023/06/02 04:03:32;;;;;;;32.70;30.90;;;20.10;48.90;;;;;;5060522;28;20530;-54
2023/06/02 04:05:59;;;;;;;31.60;29.80;;;20.10;48.90;;;;;;5074172;28;20451;-55
2023/06/02 04:08:26;;;;;;;33.20;31.40;;;20.10;48.60;;;;;;5066595;28;20490;-58
2023/06/02 04:10:53;;;;;;;31.60;29.70;;;20.00;48.30;;;;;;5055129;28;20440;-55
2023/06/02 04:13:20;;;;;;;31.23;29.53;;;20.00;48.50;;;;;;5055350;28;20480;-56
2023/06/02 04:15:48;;;;;;;33.30;31.57;;;20.10;48.90;;;;;;5062117;28;20522;-54
2023/06/02 04:18:15;;;;;;;32.53;30.67;;;20.00;48.80;;;;;;5070665;28;20479;-55
2023/06/02 04:20:42;;;;;;;32.67;30.77;;;20.10;48.90;;;;;;5061101;28;20566;-57
2023/06/02 04:23:09;;;;;;;31.30;29.60;;;20.10;49.40;;;;;;5063876;28;20440;-54
2023/06/02 04:25:36;;;;;;;31.13;29.33;;;20.10;48.80;;;;;;5053614;28;20483;-56
2023/06/02 04:28:03;;;;;;;30.60;29.00;;;20.10;48.90;;;;;;5056779;28;20871;-53
2023/06/02 04:30:30;;;;;;;32.57;30.57;;;20.10;48.90;;;;;;5073416;28;20487;-55
2023/06/02 04:32:58;;;;;;;31.57;29.77;;;20.10;48.90;;;;;;5071669;28;20498;-54
2023/06/02 04:35:25;;;;;;;30.20;28.77;;;20.10;48.90;;;;;;5053529;28;20535;-54
2023/06/02 04:37:52;;;;;;;30.70;29.00;;;20.10;48.80;;;;;;5054932;28;20684;-55
2023/06/02 04:40:19;;;;;;;32.47;30.60;;;20.10;48.80;;;;;;5073121;28;20554;-54
2023/06/02 04:42:46;;;;;;;31.40;29.67;;;20.10;48.80;;;;;;5073017;28;20522;-56
2023/06/02 04:45:13;;;;;;;31.73;29.93;;;20.10;48.80;;;;;;5053423;28;20480;-55
2023/06/02 04:47:41;;;;;;;31.70;29.87;;;20.10;48.80;;;;;;5053342;28;20491;-55
2023/06/02 04:50:13;;;;;;;30.97;29.43;;;20.10;48.70;;;;;;5073069;28;20813;-55
2023/06/02 04:52:40;;;;;;;31.10;29.10;;;20.00;48.50;;;;;;5056973;28;20452;-54
2023/06/02 04:55:10;;;;;;;31.77;29.97;;;20.00;48.60;;;;;;5053486;28;20502;-55
2023/06/02 04:57:37;;;;;;;31.10;29.50;;;20.10;48.70;;;;;;5053244;28;20452;-57
2023/06/02 05:00:05;;;;;;;30.07;28.37;;;20.00;48.70;;;;;;5071903;28;20467;-55
2023/06/02 05:02:32;;;;;;;27.83;26.43;;;20.00;48.70;;;;;;5072974;28;20486;-52
2023/06/02 05:05:01;;;;;;;29.47;28.07;;;20.00;48.50;;;;;;5054231;28;20880;-53
2023/06/02 05:07:29;;;;;;;31.10;28.80;;;20.00;48.70;;;;;;5052906;28;20543;-53
2023/06/02 05:09:56;;;;;;;30.30;28.33;;;20.00;48.70;;;;;;5054168;28;20947;-53
2023/06/02 05:12:25;;;;;;;32.07;29.83;;;20.00;48.60;;;;;;5052928;28;20903;-53
2023/06/02 05:14:54;;;;;;;28.63;27.13;;;19.90;48.70;;;;;;5066201;28;20444;-56
2023/06/02 05:17:23;;;;;;;31.10;29.57;;;20.10;49.30;;;;;;5067822;28;20451;-52
2023/06/02 05:19:53;;;;;;;30.17;28.53;;;20.20;49.40;;;;;;5055043;28;20490;-54
2023/06/02 05:22:20;;;;;;;29.87;28.47;;;20.20;49.00;;;;;;5052475;28;21092;-53
2023/06/02 05:24:49;;;;;;;30.33;28.40;;;20.20;49.00;;;;;;5065478;28;20535;-54
2023/06/02 05:27:16;;;;;;;31.17;29.20;;;20.30;49.00;;;;;;5072511;28;20443;-55
2023/06/02 05:29:43;;;;;;;31.47;29.60;;;20.30;49.50;;;;;;5055906;28;20503;-53
2023/06/02 05:32:11;;;;;;;32.00;29.47;;;20.40;50.40;;;;;;5052609;28;20695;-53
2023/06/02 05:34:39;;;;;;;33.20;30.33;;;20.40;51.30;;;;;;5067615;28;20526;-52
2023/06/02 05:37:06;;;;;;;34.37;31.33;;;20.40;52.80;;;;;;5072284;28;20817;-53
2023/06/02 05:39:33;;;;;;;33.87;31.00;;;20.40;53.40;;;;;;5056838;28;20510;-54
2023/06/02 05:42:01;;;;;;;37.47;33.47;;;20.50;54.30;;;;;;5052230;28;20761;-52
2023/06/02 05:44:28;;;;;;;36.13;33.27;;;20.50;56.40;;;;;;5066359;28;20470;-55
2023/06/02 05:46:55;;;;;;;33.60;31.27;;;20.50;56.60;;;;;;5072253;28;20493;-53
2023/06/02 05:49:22;;;;;;;34.10;32.10;;;20.50;55.30;;;;;;5066623;28;20495;-55
2023/06/02 05:51:49;;;;;;;33.27;31.07;;;20.50;54.50;;;;;;5059956;28;20528;-53
2023/06/02 05:54:16;;;;;;;31.90;30.00;;;20.60;54.20;;;;;;5067744;28;20908;-54
2023/06/02 05:56:43;;;;;;;32.03;30.10;;;20.50;53.60;;;;;;5063004;28;20454;-60
2023/06/02 05:59:11;;;;;;;32.20;30.17;;;20.50;53.10;;;;;;5065751;28;20490;-60
2023/06/02 06:01:38;;;;;;;31.00;29.20;;;20.50;52.90;;;;;;5075888;28;20907;-62
2023/06/02 06:04:05;;;;;;;30.50;28.70;;;20.50;52.60;;;;;;5077403;28;20501;-61
2023/06/02 06:06:32;;;;;;;34.53;31.63;;;20.60;52.50;;;;;;5078533;28;20458;-61
2023/06/02 06:08:59;;;;;;;31.00;29.00;;;20.60;52.30;;;;;;5077134;28;20470;-61
2023/06/02 06:11:26;;;;;;;30.37;28.50;;;20.60;52.20;;;;;;5075872;28;20459;-61
2023/06/02 06:13:53;;;;;;;30.37;28.50;;;20.60;52.10;;;;;;5075848;28;20526;-61
2023/06/02 06:16:21;;;;;;;30.37;28.40;;;20.60;52.00;;;;;;5075470;28;20962;-59
2023/06/02 06:18:48;;;;;;;32.10;30.23;;;20.60;52.00;;;;;;5075716;28;20490;-61
2023/06/02 06:21:15;;;;;;;31.20;29.40;;;20.60;51.90;;;;;;5075486;28;20515;-61
2023/06/02 06:23:42;;;;;;;33.07;31.17;;;20.60;51.90;;;;;;5076123;28;20475;-60
2023/06/02 06:26:09;;;;;;;30.23;28.53;;;20.60;51.80;;;;;;5075202;28;20497;-62
2023/06/02 06:28:36;;;;;;;29.63;28.17;;;20.60;51.70;;;;;;5075193;28;20499;-61
2023/06/02 06:31:03;;;;;;;28.97;27.30;;;20.60;51.70;;;;;;5075713;28;20482;-59
2023/06/02 06:33:31;;;;;;;29.50;27.60;;;20.60;51.60;;;;;;5075898;28;20467;-61
2023/06/02 06:35:58;;;;;;;29.67;27.90;;;20.60;51.60;;;;;;5076987;28;20475;-60
2023/06/02 06:38:25;;;;;;;29.03;27.43;;;20.60;51.50;;;;;;5076040;28;20868;-61
2023/06/02 06:40:52;;;;;;;28.07;26.77;;;20.60;51.50;;;;;;5075548;28;20471;-61
2023/06/02 06:43:19;;;;;;;29.57;27.97;;;20.60;51.50;;;;;;5076073;28;20471;-60
2023/06/02 06:45:46;;;;;;;29.13;27.63;;;20.60;52.00;;;;;;5075912;28;20447;-62
2023/06/02 06:48:13;;;;;;;30.33;28.80;;;20.70;51.40;;;;;;5074717;28;20471;-61
2023/06/02 06:50:41;;;;;;;30.23;28.53;;;20.60;51.20;;;;;;5075686;28;20471;-61
2023/06/02 06:53:11;;;;;;;30.67;29.07;;;20.60;51.20;;;;;;5074999;28;20443;-61
2023/06/02 06:55:38;;;;;;;31.20;29.50;;;20.60;51.20;;;;;;5075430;28;20458;-61
2023/06/02 06:58:05;;;;;;;29.87;28.27;;;20.60;51.20;;;;;;5076389;28;20888;-61
2023/06/02 07:00:31;;;;;;;28.67;27.17;;;20.60;51.10;;;;;;5075267;28;21014;-61
2023/06/02 07:02:58;;;;;;;30.37;28.77;;;20.60;51.10;;;;;;5074591;28;20522;-60
2023/06/02 07:05:25;;;;;;;30.10;28.33;;;20.60;51.10;;;;;;5075972;28;20471;-60
2023/06/02 07:07:54;;;;;;;30.63;28.83;;;20.60;51.10;;;;;;5075421;28;20458;-61
2023/06/02 07:10:21;;;;;;;30.80;29.10;;;20.60;51.00;;;;;;5075115;28;20483;-60
2023/06/02 07:12:48;;;;;;;31.17;29.30;;;20.60;51.00;;;;;;5074564;28;20478;-61
2023/06/02 07:15:15;;;;;;;30.90;28.90;;;20.60;50.90;;;;;;5075010;28;20475;-61
2023/06/02 07:17:43;;;;;;;30.93;29.33;;;20.60;50.90;;;;;;5075403;28;20475;-60
2023/06/02 07:20:11;;;;;;;31.50;29.80;;;20.60;51.00;;;;;;5075075;28;20498;-61
2023/06/02 07:22:38;;;;;;;31.20;29.40;;;20.60;50.90;;;;;;5075848;28;20890;-62
2023/06/02 07:25:08;;;;;;;31.43;29.80;;;20.60;50.80;;;;;;5075901;28;20435;-61
2023/06/02 07:27:35;;;;;;;31.70;30.00;;;20.60;50.80;;;;;;5075808;28;20471;-61
2023/06/02 07:30:02;;;;;;;33.30;31.50;;;20.60;50.80;;;;;;5075971;28;20494;-60
2023/06/02 07:32:29;;;;;;;32.50;30.60;;;20.60;50.80;;;;;;5076123;28;20462;-60
2023/06/02 07:34:56;;;;;;;30.50;28.80;;;20.60;50.80;;;;;;5076889;28;20463;-61
2023/06/02 07:37:23;;;;;;;31.27;29.50;;;20.60;50.80;;;;;;5077153;28;20475;-60
2023/06/02 07:39:49;;;;;;;31.33;29.37;;;20.60;50.70;;;;;;5075439;28;20540;-61
2023/06/02 07:42:19;;;;;;;31.27;29.57;;;20.60;50.60;;;;;;5075836;28;21081;-60
2023/06/02 07:44:46;;;;;;;31.13;29.50;;;20.60;50.60;;;;;;5076132;28;20451;-62
2023/06/02 07:47:13;;;;;;;31.80;30.00;;;20.60;50.60;;;;;;5075401;28;20957;-59
2023/06/02 07:49:39;;;;;;;31.40;29.70;;;20.60;50.50;;;;;;5075142;28;20483;-61
2023/06/02 07:52:07;;;;;;;32.03;30.33;;;20.60;50.60;;;;;;5075202;28;20468;-60
2023/06/02 07:54:34;;;;;;;32.73;31.17;;;20.60;50.60;;;;;;5076172;28;20483;-59
2023/06/02 07:57:00;;;;;;;32.67;30.93;;;20.60;50.60;;;;;;5076694;28;20477;-61
2023/06/02 07:59:31;;;;;;;33.43;31.53;;;20.60;50.50;;;;;;5077584;28;20495;-60
2023/06/02 08:01:58;;;;;;;31.30;29.60;;;20.60;50.50;;;;;;5078422;28;20522;-62
2023/06/02 08:04:27;;;;;;;32.47;30.67;;;20.60;50.40;;;;;;5078708;28;20878;-61
2023/06/02 08:06:55;;;;;;;33.47;31.77;;;20.60;50.40;;;;;;5079359;28;20452;-61
2023/06/02 08:09:22;;;;;;;32.53;30.93;;;20.60;50.40;;;;;;5078934;28;20467;-61
2023/06/02 08:11:49;;;;;;;33.70;31.60;;;20.60;50.40;;;;;;5077589;28;20443;-61
2023/06/02 08:14:16;;;;;;;33.87;32.10;;;20.60;50.40;;;;;;5077922;28;20471;-61
2023/06/02 08:16:45;;;;;;;32.83;31.23;;;20.60;50.40;;;;;;5077968;28;20866;-60
2023/06/02 08:19:12;;;;;;;31.93;30.07;;;20.60;50.40;;;;;;5078074;28;20885;-59
2023/06/02 08:21:41;;;;;;;31.60;29.63;;;20.60;50.40;;;;;;5078210;28;20517;-60
2023/06/02 08:24:08;;;;;;;33.73;31.87;;;20.60;50.40;;;;;;5078219;28;20444;-61
2023/06/02 08:26:39;;;;;;;34.17;32.17;;;20.60;50.40;;;;;;5076691;28;20471;-56
2023/06/02 08:29:08;;;;;;;33.80;31.90;;;20.60;50.40;;;;;;5074291;28;20467;-56
2023/06/02 08:31:36;;;;;;;32.30;30.60;;;20.60;50.40;;;;;;5074305;28;20530;-57
2023/06/02 08:34:05;;;;;;;35.20;33.40;;;20.60;50.30;;;;;;5073613;28;20435;-58
2023/06/02 08:36:32;;;;;;;35.20;33.40;;;20.60;50.20;;;;;;5073913;28;20483;-58
2023/06/02 08:39:05;;;;;;;34.87;32.30;;;20.60;50.20;;;;;;5099320;22;20456;-60
2023/06/02 08:41:37;;;;;;;33.97;31.97;;;20.60;50.20;;;;;;5081963;28;20436;-61
2023/06/02 08:44:05;;;;;;;33.97;32.07;;;20.60;50.20;;;;;;5053722;28;20494;-59
2023/06/02 08:46:32;;;;;;;31.70;30.20;;;20.60;50.20;;;;;;5053366;28;20452;-56
2023/06/02 08:49:00;;;;;;;32.03;30.33;;;20.60;50.20;;;;;;5053152;28;20547;-60
2023/06/02 08:51:32;;;;;;;31.37;29.77;;;20.60;50.20;;;;;;5053231;28;20563;-59
2023/06/02 08:54:00;;;;;;;31.87;30.37;;;20.60;50.30;;;;;;5053244;28;20472;-58
2023/06/02 08:56:27;;;;;;;32.30;30.50;;;20.60;50.20;;;;;;5053300;28;20448;-58
2023/06/02 08:58:54;;;;;;;31.83;30.20;;;20.60;50.20;;;;;;5052953;28;20487;-58
2023/06/02 09:01:21;;;;;;;29.63;28.23;;;20.70;50.20;;;;;;5053126;28;20483;-59
2023/06/02 09:03:48;;;;;;;31.70;30.20;;;20.60;50.10;;;;;;5052790;28;21015;-61
2023/06/02 09:06:20;;;;;;;31.87;30.27;;;20.60;50.10;;;;;;5052961;28;20802;-58
2023/06/02 09:08:56;;;;;;;31.33;29.83;;;20.60;50.10;;;;;;5052693;28;20791;-59
2023/06/02 09:11:23;;;;;;;30.70;29.00;;;20.60;50.00;;;;;;5052592;28;20483;-59
2023/06/02 09:13:50;;;;;;;31.90;30.20;;;20.70;50.00;;;;;;5052759;28;20479;-59
2023/06/02 09:16:17;;;;;;;32.03;30.30;;;20.60;50.30;;;;;;5052773;28;20957;-58
2023/06/02 09:18:57;;;;;;;32.57;30.73;;;20.60;49.70;;;;;;5052508;28;20876;-59
2023/06/02 09:21:27;;;;;;;32.13;30.50;;;20.70;49.80;;;;;;5052702;28;20439;-56
2023/06/02 09:23:56;;;;;;;32.67;31.07;;;20.70;49.90;;;;;;5052553;28;20479;-60
2023/06/02 09:26:25;;;;;;;31.47;29.67;;;20.60;49.70;;;;;;5052644;28;20452;-60
2023/06/02 09:29:03;;;;;;;30.43;28.83;;;20.60;49.70;;;;;;5052304;28;20480;-60
2023/06/02 09:31:44;;;;;;;31.00;29.50;;;20.60;49.80;;;;;;5052431;28;20517;-60
2023/06/02 09:34:11;;;;;;;29.70;28.20;;;20.60;49.90;;;;;;5052477;28;20444;-60
2023/06/02 09:36:38;;;;;;;31.67;30.00;;;20.60;49.90;;;;;;5052283;28;20491;-61
2023/06/02 09:39:08;;;;;;;30.00;28.40;;;20.60;49.80;;;;;;5052065;28;20862;-58
2023/06/02 09:41:35;;;;;;;30.63;29.03;;;20.60;49.90;;;;;;5052240;28;20452;-60
2023/06/02 09:44:04;;;;;;;30.37;28.87;;;20.70;49.80;;;;;;5052028;28;20563;-59
2023/06/02 09:46:39;;;;;;;29.87;28.17;;;20.70;49.80;;;;;;5052271;28;20455;-60
2023/06/02 09:49:06;;;;;;;31.20;29.50;;;20.60;49.60;;;;;;5052017;28;20503;-60
2023/06/02 09:51:33;;;;;;;30.10;28.53;;;20.60;49.50;;;;;;5052151;28;20440;-57
2023/06/02 09:54:01;;;;;;;28.83;27.13;;;20.60;49.50;;;;;;5051969;28;20486;-60
2023/06/02 09:56:33;;;;;;;31.83;30.33;;;20.60;49.60;;;;;;5052048;28;20452;-60
2023/06/02 09:59:00;;;;;;;31.27;29.77;;;20.60;49.60;;;;;;5051772;28;20839;-60
2023/06/02 10:01:28;;;;;;;31.37;29.87;;;20.60;49.70;;;;;;5051875;28;20482;-60
2023/06/02 10:03:54;;;;;;;30.93;29.53;;;20.60;49.70;;;;;;5051769;28;20515;-57
2023/06/02 10:06:35;;;;;;;30.10;28.70;;;20.60;49.70;;;;;;5051765;28;20476;-58
2023/06/02 10:09:22;;;;;;;30.50;29.10;;;20.60;49.80;;;;;;5051637;28;20897;-60
2023/06/02 10:12:02;;;;;;;29.87;28.37;;;20.70;49.90;;;;;;5051836;28;20479;-60
2023/06/02 10:14:51;;;;;;;30.20;28.67;;;20.70;50.00;;;;;;5051795;28;20480;-59
2023/06/02 10:17:26;;;;;;;31.63;29.83;;;20.60;49.80;;;;;;5051920;28;20506;-57
2023/06/02 10:20:20;;;;;;;32.10;30.30;;;20.70;49.60;;;;;;5051367;28;20495;-62
2023/06/02 10:23:03;;;;;;;30.07;28.47;;;20.60;49.10;;;;;;5050689;28;20511;-61
2023/06/02 10:25:39;;;;;;;33.20;31.40;;;20.60;49.20;;;;;;5051500;28;20448;-60
2023/06/02 10:28:09;;;;;;;29.10;27.70;;;20.50;49.00;;;;;;5051660;28;20861;-56
2023/06/02 10:30:36;;;;;;;31.00;29.40;;;20.50;49.20;;;;;;5051221;28;20492;-61
2023/06/02 10:33:03;;;;;;;31.20;29.60;;;20.60;49.20;;;;;;5051429;28;20473;-58
2023/06/02 10:35:58;;;;;;;30.70;29.20;;;20.60;49.20;;;;;;5051428;28;20531;-60
2023/06/02 10:38:26;;;;;;;30.50;28.90;;;20.60;49.20;;;;;;5051469;28;20803;-58
2023/06/02 10:40:54;;;;;;;29.93;28.50;;;20.60;49.30;;;;;;5051102;28;20475;-59
2023/06/02 10:43:23;;;;;;;30.30;28.70;;;20.60;49.30;;;;;;5051274;28;20506;-60
2023/06/02 10:45:50;;;;;;;29.80;28.30;;;20.60;49.30;;;;;;5051210;28;20451;-60
2023/06/02 10:48:36;;;;;;;30.90;29.00;;;20.60;49.50;;;;;;5051302;28;20444;-59
2023/06/02 10:51:03;;;;;;;29.60;28.20;;;20.60;49.50;;;;;;5050965;28;20464;-61
2023/06/02 10:53:30;;;;;;;29.93;28.63;;;20.60;49.60;;;;;;5051222;28;20436;-60
2023/06/02 10:55:57;;;;;;;29.60;27.97;;;20.60;49.60;;;;;;5051219;28;20471;-61
2023/06/02 10:58:48;;;;;;;30.00;28.43;;;20.60;49.60;;;;;;5051163;28;20669;-60
2023/06/02 11:01:47;;;;;;;30.60;29.00;;;20.60;49.60;;;;;;5051079;28;20531;-55
2023/06/02 11:04:27;;;;;;;29.10;27.47;;;20.70;49.70;;;;;;5051093;28;20927;-59
2023/06/02 11:07:15;;;;;;;29.20;27.80;;;20.70;49.80;;;;;;5051102;28;20447;-59
2023/06/02 11:09:43;;;;;;;28.40;27.00;;;20.60;49.80;;;;;;5050870;28;20810;-59
2023/06/02 11:12:11;;;;;;;28.90;27.50;;;20.60;49.80;;;;;;5051148;28;20440;-59
2023/06/02 11:15:19;;;;;;;30.17;28.67;;;20.70;49.90;;;;;;5051121;28;20468;-62
2023/06/02 11:17:50;;;;;;;28.23;26.93;;;20.60;49.80;;;;;;5051009;28;20873;-61
2023/06/02 11:20:18;;;;;;;30.97;29.17;;;20.70;50.00;;;;;;5050874;28;20486;-61
2023/06/02 11:22:46;;;;;;;28.47;27.07;;;20.60;50.00;;;;;;5051163;28;21031;-60
2023/06/02 11:25:15;;;;;;;28.10;26.60;;;20.70;50.00;;;;;;5051509;28;20451;-59
2023/06/02 11:27:44;;;;;;;28.53;27.13;;;20.70;50.00;;;;;;5051402;28;20448;-60
2023/06/02 11:30:15;;;;;;;28.77;27.33;;;20.70;50.00;;;;;;5051097;28;20472;-61
2023/06/02 11:32:46;;;;;;;27.80;26.50;;;20.70;50.00;;;;;;5051840;28;20475;-60
2023/06/02 11:35:13;;;;;;;27.70;26.33;;;20.70;50.00;;;;;;5055012;28;20455;-62
2023/06/02 11:37:41;;;;;;;27.17;25.90;;;20.70;50.00;;;;;;5054773;28;20448;-62
2023/06/02 11:40:11;;;;;;;27.70;26.20;;;20.70;50.00;;;;;;5054573;28;20507;-61
2023/06/02 11:42:40;;;;;;;28.77;27.40;;;20.80;50.10;;;;;;5054787;28;20493;-59
2023/06/02 11:45:19;;;;;;;29.03;27.53;;;20.80;50.20;;;;;;5054755;28;20443;-60
2023/06/02 11:47:47;;;;;;;27.50;26.00;;;20.80;50.30;;;;;;5054915;28;20443;-62
2023/06/02 11:50:18;;;;;;;26.37;25.07;;;20.80;50.30;;;;;;5054567;28;20506;-59
2023/06/02 11:52:45;;;;;;;28.20;26.80;;;20.80;50.40;;;;;;5054666;28;20455;-60
2023/06/02 11:55:12;;;;;;;28.50;27.10;;;20.80;50.40;;;;;;5054686;28;20483;-62
2023/06/02 11:57:39;;;;;;;28.83;27.27;;;20.80;50.50;;;;;;5054932;28;20532;-62
2023/06/02 12:00:12;;;;;;;29.70;28.40;;;20.80;50.50;;;;;;5054488;28;20597;-61
2023/06/02 12:02:43;;;;;;;27.67;26.37;;;20.80;51.00;;;;;;5054249;28;20456;-60
2023/06/02 12:05:29;;;;;;;28.40;27.10;;;20.80;50.70;;;;;;5054499;28;20467;-60
2023/06/02 12:07:56;;;;;;;27.90;26.53;;;20.80;50.80;;;;;;5054383;28;20539;-61
2023/06/02 12:10:31;;;;;;;28.87;27.57;;;20.80;50.80;;;;;;5054243;28;20491;-61
2023/06/02 12:12:58;;;;;;;26.83;25.53;;;20.80;50.90;;;;;;5054289;28;20843;-61
2023/06/02 12:15:32;;;;;;;28.20;26.40;;;20.80;51.00;;;;;;5054368;28;20475;-61
2023/06/02 12:18:00;;;;;;;30.90;29.03;;;20.80;51.00;;;;;;5054229;28;20449;-60
2023/06/02 12:20:38;;;;;;;28.30;26.83;;;20.90;51.10;;;;;;5053815;28;20552;-62
2023/06/02 12:23:05;;;;;;;27.97;26.70;;;20.90;51.10;;;;;;5053909;28;20476;-61
2023/06/02 12:25:33;;;;;;;29.33;27.93;;;20.90;51.20;;;;;;5054016;28;20962;-61
2023/06/02 12:28:12;;;;;;;29.73;27.93;;;20.90;51.30;;;;;;5053950;28;20479;-60
2023/06/02 12:30:39;;;;;;;28.93;27.50;;;20.90;51.40;;;;;;5053895;28;20486;-62
2023/06/02 12:33:08;;;;;;;29.60;28.00;;;20.90;51.40;;;;;;5053572;28;20480;-61
2023/06/02 12:35:36;;;;;;;29.63;28.13;;;20.90;51.40;;;;;;5053999;28;20472;-62
2023/06/02 12:38:04;;;;;;;29.23;27.83;;;20.90;51.40;;;;;;5053805;28;20483;-62